createdAt,value
2018-07-02T00:00:39.235Z,62.4
2018-07-02T00:01:38.276Z,62.3
2018-07-02T00:02:38.118Z,62.5
2018-07-02T00:03:36.846Z,62.5
2018-07-02T00:04:35.916Z,63.1
2018-07-02T00:05:35.606Z,63.3
2018-07-02T00:06:34.663Z,62.9
2018-07-02T00:07:33.761Z,63
2018-07-02T00:08:32.965Z,63.1
2018-07-02T00:09:31.950Z,62.6
2018-07-02T00:10:31.435Z,62.6
2018-07-02T00:11:30.769Z,63.1
2018-07-02T00:12:30.089Z,62.7
2018-07-02T00:13:29.336Z,62.8
2018-07-02T00:14:28.450Z,62.8
2018-07-02T00:15:27.830Z,63.4
2018-07-02T00:16:26.998Z,63.4
2018-07-02T00:17:26.363Z,63.3
2018-07-02T00:18:25.524Z,63.5
2018-07-02T00:19:24.532Z,63.5
2018-07-02T00:20:23.726Z,63
2018-07-02T00:21:23.128Z,63.1
2018-07-02T00:22:22.125Z,63.5
2018-07-02T00:23:21.940Z,63.5
2018-07-02T00:25:19.960Z,63.3
2018-07-02T00:26:19.448Z,63.7
2018-07-02T00:27:18.433Z,63.8
2018-07-02T00:28:17.662Z,63.8
2018-07-02T00:29:16.979Z,63.5
2018-07-02T00:30:15.997Z,63.5
2018-07-02T00:31:15.456Z,63.4
2018-07-02T00:32:14.522Z,63.1
2018-07-02T00:33:13.734Z,63.9
2018-07-02T00:34:13.118Z,63.4
2018-07-02T00:35:12.311Z,64.1
2018-07-02T00:36:11.633Z,64.3
2018-07-02T00:37:10.820Z,64.2
2018-07-02T00:38:09.703Z,64.2
2018-07-02T00:38:40.498Z,64.2
2018-07-02T00:39:11.031Z,63.9
2018-07-02T00:40:08.204Z,64.2
2018-07-02T00:41:07.397Z,64.3
2018-07-02T00:42:06.582Z,64.6
2018-07-02T00:43:05.961Z,64.3
2018-07-02T00:44:05.204Z,65.1
2018-07-02T00:45:05.279Z,64.5
2018-07-02T00:46:03.829Z,64.6
2018-07-02T00:47:03.089Z,64.4
2018-07-02T00:48:01.827Z,64.5
2018-07-02T00:48:32.223Z,64.5
2018-07-02T00:49:03.651Z,64.5
2018-07-02T00:49:33.204Z,64.5
2018-07-02T00:50:03.863Z,64.5
2018-07-02T00:50:34.516Z,64.5
2018-07-02T00:51:04.789Z,65.1
2018-07-02T00:51:35.429Z,65.1
2018-07-02T00:52:58.077Z,64.7
2018-07-02T00:53:57.551Z,64.8
2018-07-02T00:54:56.569Z,64.9
2018-07-02T00:55:56.080Z,64.8
2018-07-02T00:56:54.878Z,65
2018-07-02T00:57:54.489Z,65.2
2018-07-02T00:58:53.917Z,65.2
2018-07-02T00:59:23.809Z,65.2
2018-07-02T00:59:54.349Z,65.5
2018-07-02T01:00:25.496Z,65.5
2018-07-02T01:00:55.509Z,65
2018-07-02T01:01:26.001Z,65
2018-07-02T01:01:56.321Z,65.4
2018-07-02T01:02:26.428Z,65.4
2018-07-02T01:03:49.665Z,65.9
2018-07-02T01:04:49.037Z,65.8
2018-07-02T01:05:48.113Z,65.4
2018-07-02T01:06:47.417Z,65.5
2018-07-02T01:07:46.425Z,65.5
2018-07-02T01:08:45.868Z,66
2018-07-02T01:09:44.876Z,65.8
2018-07-02T01:10:44.342Z,65.8
2018-07-02T01:11:43.199Z,66
2018-07-02T01:12:42.610Z,66.3
2018-07-02T01:13:41.960Z,66
2018-07-02T01:14:41.746Z,65.5
2018-07-02T01:15:40.355Z,66.2
2018-07-02T01:16:39.386Z,66.3
2018-07-02T01:17:39.415Z,66.9
2018-07-02T01:18:37.883Z,66.7
2018-07-02T01:19:37.046Z,66.7
2018-07-02T01:20:37.036Z,66.6
2018-07-02T01:21:35.853Z,66.7
2018-07-02T01:22:35.021Z,66.9
2018-07-02T01:23:34.636Z,66.6
2018-07-02T01:24:33.093Z,66.8
2018-07-02T01:25:32.603Z,66.9
2018-07-02T01:26:32.177Z,67.1
2018-07-02T01:27:30.860Z,67.2
2018-07-02T01:28:30.344Z,67.1
2018-07-02T01:29:00.974Z,67.1
2018-07-02T01:29:31.578Z,67.5
2018-07-02T01:30:01.883Z,67.5
2018-07-02T01:30:32.527Z,67.8
2018-07-02T01:31:02.656Z,67.8
2018-07-02T01:31:33.262Z,67.3
2018-07-02T01:32:03.765Z,67.3
2018-07-02T01:33:26.013Z,67.5
2018-07-02T01:34:25.085Z,67.6
2018-07-02T01:35:24.551Z,67.1
2018-07-02T01:36:24.635Z,67.6
2018-07-02T01:37:23.498Z,67.4
2018-07-02T01:38:22.190Z,67.6
2018-07-02T01:46:35.674Z,67.6
2018-07-02T01:47:15.017Z,68.9
2018-07-02T01:50:31.398Z,68.4
2018-07-02T01:51:12.348Z,68.4
2018-07-02T01:52:11.119Z,68.7
2018-07-02T01:53:10.437Z,68.5
2018-07-02T01:54:09.402Z,68.9
2018-07-02T01:55:08.822Z,69.1
2018-07-02T01:56:08.026Z,69.2
2018-07-02T01:57:07.957Z,69.1
2018-07-02T01:58:06.347Z,69.6
2018-07-02T01:59:05.506Z,69.6
2018-07-02T02:00:04.900Z,69.3
2018-07-02T02:01:04.244Z,69.3
2018-07-02T02:02:03.361Z,69.1
2018-07-02T02:03:02.410Z,69.5
2018-07-02T02:04:02.014Z,69.6
2018-07-02T02:05:01.378Z,70
2018-07-02T02:06:00.040Z,69.8
2018-07-02T02:06:59.385Z,69.5
2018-07-02T02:07:58.164Z,69.6
2018-07-02T02:08:58.330Z,70
2018-07-02T02:09:56.833Z,70
2018-07-02T02:10:55.976Z,70.1
2018-07-02T02:12:55.215Z,70
2018-07-02T02:13:53.464Z,69.9
2018-07-02T02:14:52.873Z,69.6
2018-07-02T02:15:52.266Z,70.2
2018-07-02T02:16:51.941Z,70.5
2018-07-02T02:17:50.617Z,70.2
2018-07-02T02:18:49.524Z,70.3
2018-07-02T02:19:48.948Z,70.1
2018-07-02T02:20:48.572Z,70.3
2018-07-02T02:21:47.112Z,71.1
2018-07-02T02:22:46.508Z,70.5
2018-07-02T02:23:46.006Z,70.5
2018-07-02T02:24:45.499Z,70.5
2018-07-02T02:25:44.160Z,70.3
2018-07-02T02:26:14.242Z,70.3
2018-07-02T02:26:44.833Z,71.1
2018-07-02T02:27:15.538Z,71.1
2018-07-02T02:27:45.748Z,70.7
2018-07-02T02:28:42.200Z,70.7
2018-07-02T02:29:40.958Z,70.9
2018-07-02T02:31:39.024Z,71
2018-07-02T02:32:38.996Z,70.7
2018-07-02T02:33:37.938Z,70.8
2018-07-02T02:34:36.979Z,70.6
2018-07-02T02:35:36.426Z,70.6
2018-07-02T02:36:35.582Z,70.6
2018-07-02T02:37:34.482Z,70.7
2018-07-02T02:39:32.837Z,71.4
2018-07-02T02:40:32.815Z,71.1
2018-07-02T02:41:31.414Z,70.8
2018-07-02T02:42:30.385Z,70.9
2018-07-02T02:43:29.791Z,70.7
2018-07-02T02:44:29.717Z,71.4
2018-07-02T02:45:28.013Z,71.5
2018-07-02T02:46:27.418Z,71.3
2018-07-02T02:47:26.216Z,71.4
2018-07-02T02:48:26.444Z,71.6
2018-07-02T02:49:24.957Z,71.3
2018-07-02T02:50:24.252Z,71.9
2018-07-02T02:51:23.036Z,71.7
2018-07-02T02:52:22.471Z,71.6
2018-07-02T02:53:21.767Z,71.7
2018-07-02T02:54:20.717Z,71.9
2018-07-02T02:55:20.359Z,71.7
2018-07-02T02:56:19.517Z,72.1
2018-07-02T02:57:18.359Z,71.8
2018-07-02T02:58:17.949Z,71.5
2018-07-02T02:59:16.911Z,71.6
2018-07-02T03:01:15.219Z,71.7
2018-07-02T03:02:14.549Z,71.9
2018-07-02T03:03:13.844Z,72.6
2018-07-02T03:04:13.372Z,72.1
2018-07-02T03:05:12.059Z,72.5
2018-07-02T03:05:43.242Z,72.5
2018-07-02T03:06:13.117Z,72.4
2018-07-02T03:06:43.519Z,72.4
2018-07-02T03:08:09.487Z,72.5
2018-07-02T03:09:08.642Z,72
2018-07-02T03:10:08.096Z,72.3
2018-07-02T03:11:07.030Z,72.3
2018-07-02T03:12:07.142Z,72.9
2018-07-02T03:13:05.693Z,72.6
2018-07-02T03:14:04.782Z,73.2
2018-07-02T03:15:04.098Z,73.2
2018-07-02T03:16:03.549Z,72.9
2018-07-02T03:16:33.456Z,72.9
2018-07-02T03:18:01.614Z,73.6
2018-07-02T03:18:32.239Z,73.6
2018-07-02T03:19:02.474Z,73.6
2018-07-02T03:19:32.702Z,73.6
2018-07-02T03:20:58.961Z,73
2018-07-02T03:21:58.283Z,73.2
2018-07-02T03:22:57.832Z,73
2018-07-02T03:23:57.214Z,73.6
2018-07-02T03:24:56.213Z,74.1
2018-07-02T03:25:55.182Z,74
2018-07-02T03:26:54.158Z,73.8
2018-07-02T03:27:53.224Z,73.7
2018-07-02T03:28:52.867Z,73.6
2018-07-02T03:29:51.929Z,73.2
2018-07-02T03:30:51.231Z,72.9
2018-07-02T03:31:50.838Z,73.5
2018-07-02T03:32:49.433Z,73.4
2018-07-02T03:34:47.774Z,74
2018-07-02T03:35:47.208Z,73.6
2018-07-02T03:36:46.248Z,73.5
2018-07-02T03:37:45.669Z,73.6
2018-07-02T03:38:45.498Z,73.5
2018-07-02T03:39:43.740Z,73.6
2018-07-02T03:40:43.040Z,73.4
2018-07-02T03:41:41.971Z,73.9
2018-07-02T03:42:41.686Z,73.6
2018-07-02T03:43:40.783Z,73.5
2018-07-02T03:44:39.857Z,73.3
2018-07-02T03:45:38.776Z,73.4
2018-07-02T03:46:38.908Z,73.6
2018-07-02T03:47:37.522Z,73.9
2018-07-02T03:49:35.338Z,73.9
2018-07-02T03:50:34.778Z,73.9
2018-07-02T03:51:34.201Z,73.6
2018-07-02T03:52:32.990Z,74.3
2018-07-02T03:53:32.169Z,74.1
2018-07-02T03:54:31.548Z,74
2018-07-02T03:55:30.852Z,74.4
2018-07-02T03:56:30.141Z,74.1
2018-07-02T03:57:28.947Z,74.2
2018-07-02T03:58:28.324Z,74.7
2018-07-02T03:58:58.616Z,74.7
2018-07-02T03:59:28.957Z,74.4
2018-07-02T04:00:26.723Z,74.9
2018-07-02T04:01:25.736Z,74.9
2018-07-02T04:02:25.137Z,74.9
2018-07-02T04:03:24.411Z,75
2018-07-02T04:04:23.180Z,74.6
2018-07-02T04:05:22.508Z,74.6
2018-07-02T04:06:22.112Z,74.8
2018-07-02T04:07:20.902Z,74.6
2018-07-02T04:08:20.444Z,74.6
2018-07-02T04:09:19.759Z,74.5
2018-07-02T04:10:18.391Z,75.2
2018-07-02T04:11:17.697Z,75.2
2018-07-02T04:12:17.127Z,75.3
2018-07-02T04:13:16.659Z,75.1
2018-07-02T04:14:15.067Z,74.9
2018-07-02T04:15:14.517Z,74.8
2018-07-02T04:16:13.580Z,74.7
2018-07-02T04:17:12.860Z,74.5
2018-07-02T04:18:12.817Z,74.6
2018-07-02T04:19:11.664Z,75.2
2018-07-02T04:20:10.624Z,74.8
2018-07-02T04:21:09.804Z,74.4
2018-07-02T04:22:08.797Z,74.8
2018-07-02T04:23:08.229Z,74.6
2018-07-02T04:24:07.422Z,75.8
2018-07-02T04:25:06.924Z,75.2
2018-07-02T04:26:05.794Z,74.8
2018-07-02T04:27:04.479Z,74.6
2018-07-02T04:28:03.957Z,75
2018-07-02T04:29:03.241Z,75.4
2018-07-02T04:30:02.438Z,74.9
2018-07-02T04:31:01.753Z,74.8
2018-07-02T04:32:00.638Z,74.6
2018-07-02T04:32:59.950Z,74.5
2018-07-02T04:33:58.718Z,75
2018-07-02T04:34:58.147Z,75.4
2018-07-02T04:35:28.261Z,75.4
2018-07-02T04:35:59.027Z,75.1
2018-07-02T04:36:29.735Z,75.1
2018-07-02T04:36:59.788Z,74.6
2018-07-02T04:37:30.273Z,74.6
2018-07-02T04:38:54.862Z,74.7
2018-07-02T04:39:54.311Z,74.4
2018-07-02T04:40:53.840Z,74.9
2018-07-02T04:41:53.118Z,75.2
2018-07-02T04:42:52.234Z,74.9
2018-07-02T04:43:50.778Z,74.8
2018-07-02T04:44:50.403Z,74.6
2018-07-02T04:45:49.737Z,74.7
2018-07-02T04:46:49.072Z,74.6
2018-07-02T04:47:49.279Z,75
2018-07-02T04:48:18.672Z,75
2018-07-02T04:49:46.622Z,75
2018-07-02T04:50:45.808Z,75.1
2018-07-02T04:51:44.945Z,75.3
2018-07-02T04:53:43.281Z,74.7
2018-07-02T04:54:42.665Z,74.3
2018-07-02T04:55:41.271Z,74.9
2018-07-02T04:56:40.977Z,74.2
2018-07-02T04:58:39.130Z,74.1
2018-07-02T04:59:38.200Z,73.7
2018-07-02T05:00:37.341Z,73.8
2018-07-02T05:01:36.198Z,73.8
2018-07-02T05:02:35.526Z,74
2018-07-02T05:03:34.747Z,73.6
2018-07-02T05:04:33.957Z,73.8
2018-07-02T05:05:32.780Z,73.6
2018-07-02T05:06:32.553Z,73.7
2018-07-02T05:07:31.443Z,73.7
2018-07-02T05:08:30.543Z,73.7
2018-07-02T05:09:29.980Z,73.5
2018-07-02T05:10:29.306Z,73.1
2018-07-02T05:11:28.131Z,73.1
2018-07-02T05:12:27.146Z,72.9
2018-07-02T05:13:26.581Z,73
2018-07-02T05:14:25.821Z,72.7
2018-07-02T05:15:24.826Z,72.6
2018-07-02T05:15:55.472Z,72.6
2018-07-02T05:16:26.114Z,72.6
2018-07-02T05:16:56.853Z,72.6
2018-07-02T05:18:22.581Z,72.8
2018-07-02T05:19:21.605Z,72.6
2018-07-02T05:20:21.113Z,72.4
2018-07-02T05:21:20.440Z,72.3
2018-07-02T05:22:19.654Z,72.2
2018-07-02T05:23:18.376Z,71.6
2018-07-02T05:24:17.698Z,71.5
2018-07-02T05:25:16.910Z,71.1
2018-07-02T05:26:16.257Z,70.4
2018-07-02T05:27:15.605Z,70.3
2018-07-02T05:28:14.607Z,70.3
2018-07-02T05:29:14.096Z,69.5
2018-07-02T05:30:12.931Z,68.9
2018-07-02T05:31:12.147Z,69.7
2018-07-02T05:32:11.371Z,69.6
2018-07-02T05:33:10.297Z,69.6
2018-07-02T05:34:09.625Z,69.7
2018-07-02T05:35:08.953Z,69.8
2018-07-02T05:36:08.463Z,69.7
2018-07-02T05:37:07.407Z,69.6
2018-07-02T05:38:06.629Z,69.6
2018-07-02T05:39:05.848Z,70
2018-07-02T05:40:05.178Z,69.9
2018-07-02T05:41:04.418Z,69.7
2018-07-02T05:42:03.241Z,69.9
2018-07-02T05:43:02.679Z,69.7
2018-07-02T05:44:01.908Z,69.3
2018-07-02T05:45:01.023Z,69.3
2018-07-02T05:46:00.353Z,69.6
2018-07-02T05:46:59.477Z,70
2018-07-02T05:47:58.804Z,70.1
2018-07-02T05:48:57.929Z,70
2018-07-02T05:49:57.258Z,69.9
2018-07-02T05:50:56.173Z,69.6
2018-07-02T05:51:55.402Z,69.6
2018-07-02T05:52:54.624Z,69.6
2018-07-02T05:53:53.853Z,69.1
2018-07-02T05:54:53.355Z,69.3
2018-07-02T05:55:52.576Z,69.2
2018-07-02T05:56:51.464Z,69.2
2018-07-02T05:57:50.908Z,69.1
2018-07-02T05:58:49.844Z,69.1
2018-07-02T05:59:49.176Z,69.8
2018-07-02T06:00:48.793Z,68.8
2018-07-02T06:01:19.263Z,68.8
2018-07-02T06:01:49.508Z,68.6
2018-07-02T06:02:20.148Z,68.6
2018-07-02T06:03:45.950Z,68.1
2018-07-02T06:04:45.173Z,67.8
2018-07-02T06:05:44.329Z,68
2018-07-02T06:06:43.447Z,67.2
2018-07-02T06:07:42.673Z,67.5
2018-07-02T06:08:42.153Z,67.6
2018-07-02T06:09:41.479Z,67.1
2018-07-02T06:10:40.729Z,67.2
2018-07-02T06:11:10.975Z,67.2
2018-07-02T06:11:41.255Z,67.1
2018-07-02T06:12:11.680Z,67.1
2018-07-02T06:13:38.083Z,66.7
2018-07-02T06:14:37.414Z,66.7
2018-07-02T06:16:35.751Z,65.9
2018-07-02T06:17:35.147Z,66.2
2018-07-02T06:18:34.467Z,65.7
2018-07-02T06:19:33.289Z,66.2
2018-07-02T06:20:32.620Z,66.2
2018-07-02T06:21:31.844Z,65.7
2018-07-02T06:22:31.067Z,65
2018-07-02T06:23:30.291Z,65.6
2018-07-02T06:24:29.618Z,65.4
2018-07-02T06:25:28.742Z,65.3
2018-07-02T06:26:28.180Z,65
2018-07-02T06:27:27.515Z,65
2018-07-02T06:28:26.229Z,62.9
2018-07-02T06:30:25.081Z,63.8
2018-07-02T06:31:24.432Z,63.5
2018-07-02T06:32:23.648Z,63.6
2018-07-02T06:33:22.873Z,63.7
2018-07-02T06:34:21.782Z,63.9
2018-07-02T06:35:21.108Z,64
2018-07-02T06:36:20.556Z,62.8
2018-07-02T06:37:19.380Z,62.6
2018-07-02T06:38:18.824Z,62.3
2018-07-02T06:39:18.310Z,62.2
2018-07-02T06:40:17.150Z,62.2
2018-07-02T06:41:16.388Z,61.9
2018-07-02T06:42:15.617Z,61
2018-07-02T06:43:15.065Z,60.7
2018-07-02T06:44:14.284Z,61
2018-07-02T06:45:13.605Z,61.5
2018-07-02T06:46:12.935Z,61.7
2018-07-02T06:47:11.858Z,61.8
2018-07-02T06:48:11.192Z,61.1
2018-07-02T06:49:10.535Z,61.1
2018-07-02T06:50:09.463Z,59.8
2018-07-02T06:50:39.726Z,59.8
2018-07-02T06:51:09.982Z,59.4
2018-07-02T06:51:40.229Z,59.4
2018-07-02T06:52:10.868Z,60
2018-07-02T06:52:41.188Z,60
2018-07-02T06:53:11.416Z,59.8
2018-07-02T06:53:42.061Z,59.8
2018-07-02T06:54:12.706Z,59.4
2018-07-02T06:54:43.341Z,59.4
2018-07-02T06:56:05.313Z,59.6
2018-07-02T06:57:04.265Z,60
2018-07-02T06:58:03.698Z,60.2
2018-07-02T06:59:02.518Z,59.4
2018-07-02T07:00:01.854Z,59.8
2018-07-02T07:01:01.152Z,59.7
2018-07-02T07:02:00.491Z,60.4
2018-07-02T07:02:59.824Z,59.8
2018-07-02T07:03:58.939Z,60.3
2018-07-02T07:04:29.198Z,60.3
2018-07-02T07:04:59.442Z,60
2018-07-02T07:05:30.082Z,60
2018-07-02T07:06:00.717Z,59.5
2018-07-02T07:06:57.028Z,59.4
2018-07-02T07:07:55.758Z,59.5
2018-07-02T07:08:55.209Z,57.7
2018-07-02T07:09:54.730Z,57.9
2018-07-02T07:10:53.841Z,56.9
2018-07-02T07:11:53.278Z,56.8
2018-07-02T07:12:52.114Z,56.9
2018-07-02T07:13:51.333Z,56.3
2018-07-02T07:14:51.052Z,55.7
2018-07-02T07:15:50.273Z,56.7
2018-07-02T07:16:49.492Z,57.1
2018-07-02T07:17:48.824Z,57.1
2018-07-02T07:18:47.658Z,57.2
2018-07-02T07:19:46.987Z,57.4
2018-07-02T07:20:46.104Z,57
2018-07-02T07:21:45.440Z,57.2
2018-07-02T07:22:44.883Z,56
2018-07-02T07:23:44.223Z,56.4
2018-07-02T07:24:43.649Z,56.3
2018-07-02T07:25:42.698Z,56.2
2018-07-02T07:26:42.110Z,55.9
2018-07-02T07:27:41.442Z,56.2
2018-07-02T07:28:40.558Z,55.2
2018-07-02T07:29:39.882Z,56.1
2018-07-02T07:30:38.816Z,55.4
2018-07-02T07:31:38.440Z,55.6
2018-07-02T07:32:37.773Z,55.2
2018-07-02T07:33:37.000Z,54.1
2018-07-02T07:34:35.933Z,53.9
2018-07-02T07:35:35.046Z,53.7
2018-07-02T07:36:34.663Z,53.1
2018-07-02T07:37:34.313Z,53.3
2018-07-02T07:38:33.269Z,53.6
2018-07-02T07:39:32.617Z,54.2
2018-07-02T07:40:31.952Z,54.3
2018-07-02T07:41:30.777Z,54.5
2018-07-02T07:42:30.397Z,55
2018-07-02T07:43:29.627Z,54.4
2018-07-02T07:44:28.967Z,52.9
2018-07-02T07:45:27.806Z,52.3
2018-07-02T07:46:27.432Z,52
2018-07-02T07:47:26.764Z,52.3
2018-07-02T07:48:26.191Z,51.8
2018-07-02T07:49:25.120Z,51.4
2018-07-02T07:49:55.671Z,51.4
2018-07-02T07:50:26.309Z,52.1
2018-07-02T07:51:23.734Z,51.9
2018-07-02T07:52:22.963Z,51.2
2018-07-02T07:53:22.300Z,50.4
2018-07-02T07:54:21.529Z,50.9
2018-07-02T07:55:20.855Z,49.9
2018-07-02T07:56:20.077Z,49.5
2018-07-02T07:57:19.511Z,48.9
2018-07-02T07:59:18.225Z,49.1
2018-07-02T07:59:48.758Z,49.1
2018-07-02T08:01:16.772Z,49.2
2018-07-02T08:02:15.894Z,48.7
2018-07-02T08:03:15.231Z,48.8
2018-07-02T08:04:14.449Z,48.3
2018-07-02T08:05:13.802Z,48.3
2018-07-02T08:06:13.219Z,47.9
2018-07-02T08:07:12.452Z,48.6
2018-07-02T08:08:11.673Z,49.3
2018-07-02T08:09:10.999Z,47.8
2018-07-02T08:10:10.366Z,47.2
2018-07-02T08:11:09.435Z,47.7
2018-07-02T08:12:09.050Z,48
2018-07-02T08:13:08.495Z,48.6
2018-07-02T08:14:07.424Z,48.5
2018-07-02T08:15:06.751Z,48
2018-07-02T08:16:06.078Z,48.6
2018-07-02T08:17:05.532Z,48.6
2018-07-02T08:18:04.866Z,48.6
2018-07-02T08:19:04.423Z,46.9
2018-07-02T08:20:03.290Z,47.4
2018-07-02T08:21:02.525Z,47.1
2018-07-02T08:22:01.850Z,47.2
2018-07-02T08:23:01.195Z,45.5
2018-07-02T08:24:00.424Z,45.5
2018-07-02T08:24:59.750Z,45.5
2018-07-02T08:25:59.190Z,45.9
2018-07-02T08:26:58.521Z,47
2018-07-02T08:27:57.630Z,46.4
2018-07-02T08:28:56.955Z,46.7
2018-07-02T08:29:27.084Z,46.7
2018-07-02T08:29:57.720Z,46.7
2018-07-02T08:30:28.149Z,46.7
2018-07-02T08:30:58.687Z,46.9
2018-07-02T08:31:29.337Z,46.9
2018-07-02T08:31:59.866Z,46.7
2018-07-02T08:32:30.102Z,46.7
2018-07-02T08:33:00.965Z,46.5
2018-07-02T08:33:30.995Z,46.5
2018-07-02T08:34:52.967Z,46.5
2018-07-02T08:35:52.400Z,46.6
2018-07-02T08:36:51.732Z,46.8
2018-07-02T08:37:51.164Z,47.3
2018-07-02T08:38:50.487Z,45.9
2018-07-02T08:39:49.412Z,45.4
2018-07-02T08:40:48.850Z,44.7
2018-07-02T08:41:19.405Z,44.7
2018-07-02T08:41:49.640Z,44.9
2018-07-02T08:42:20.290Z,44.9
2018-07-02T08:42:50.930Z,45.6
2018-07-02T08:43:21.473Z,45.6
2018-07-02T08:44:45.864Z,45.3
2018-07-02T08:45:45.698Z,45.7
2018-07-02T08:46:45.112Z,46.1
2018-07-02T08:47:44.040Z,46.4
2018-07-02T08:48:43.370Z,44.9
2018-07-02T08:49:42.629Z,44.4
2018-07-02T08:50:41.955Z,44.7
2018-07-02T08:51:41.175Z,45.4
2018-07-02T08:52:41.114Z,45.7
2018-07-02T08:53:40.152Z,45.5
2018-07-02T08:54:39.586Z,45.2
2018-07-02T08:55:38.928Z,45.2
2018-07-02T08:56:38.272Z,43.7
2018-07-02T08:57:37.608Z,43.5
2018-07-02T08:58:36.545Z,44.5
2018-07-02T08:59:36.279Z,44.8
2018-07-02T09:00:35.216Z,44.7
2018-07-02T09:01:34.840Z,42.9
2018-07-02T09:02:34.171Z,43.5
2018-07-02T09:03:33.401Z,43
2018-07-02T09:04:32.728Z,44.1
2018-07-02T09:05:32.056Z,43
2018-07-02T09:06:31.508Z,43.8
2018-07-02T09:07:30.942Z,43.6
2018-07-02T09:08:29.888Z,43.6
2018-07-02T09:09:29.618Z,43.4
2018-07-02T09:10:28.899Z,42.4
2018-07-02T09:11:27.907Z,42.2
2018-07-02T09:12:27.231Z,41.1
2018-07-02T09:13:26.557Z,41.2
2018-07-02T09:14:25.902Z,41
2018-07-02T09:15:25.235Z,42.2
2018-07-02T09:16:24.675Z,41.8
2018-07-02T09:17:24.151Z,41
2018-07-02T09:18:23.375Z,41.3
2018-07-02T09:19:22.605Z,42.3
2018-07-02T09:20:22.231Z,42.1
2018-07-02T09:21:21.269Z,42.6
2018-07-02T09:22:20.700Z,41.9
2018-07-02T09:22:51.129Z,41.9
2018-07-02T09:23:21.764Z,42.5
2018-07-02T09:23:52.282Z,42.5
2018-07-02T09:24:22.528Z,42.8
2018-07-02T09:25:19.068Z,41.9
2018-07-02T09:26:18.021Z,42.1
2018-07-02T09:27:17.495Z,41.7
2018-07-02T09:28:16.822Z,41.6
2018-07-02T09:28:47.071Z,41.6
2018-07-02T09:30:15.630Z,41.3
2018-07-02T09:31:14.754Z,41.3
2018-07-02T09:32:14.141Z,41.2
2018-07-02T09:33:13.504Z,41.7
2018-07-02T09:34:12.831Z,42.8
2018-07-02T09:35:12.453Z,40.4
2018-07-02T09:36:11.811Z,40.3
2018-07-02T09:37:11.036Z,40.9
2018-07-02T09:38:10.155Z,40.3
2018-07-02T09:39:09.691Z,39
2018-07-02T09:39:39.638Z,39
2018-07-02T09:40:10.019Z,39.9
2018-07-02T09:41:08.236Z,39.4
2018-07-02T09:42:07.559Z,39.1
2018-07-02T09:43:07.008Z,39.5
2018-07-02T09:44:06.447Z,39.8
2018-07-02T09:45:05.559Z,40.6
2018-07-02T09:46:05.187Z,40.2
2018-07-02T09:47:04.306Z,40.4
2018-07-02T09:48:04.030Z,38.3
2018-07-02T09:49:03.360Z,39.6
2018-07-02T09:51:01.975Z,40.6
2018-07-02T09:52:01.204Z,39.4
2018-07-02T09:53:00.560Z,38.4
2018-07-02T09:53:59.998Z,39.4
2018-07-02T09:54:59.221Z,38.8
2018-07-02T09:55:58.787Z,39.5
2018-07-02T09:56:58.217Z,39.3
2018-07-02T09:57:57.549Z,38.3
2018-07-02T09:58:56.771Z,38.1
2018-07-02T09:59:55.885Z,39.4
2018-07-02T10:00:55.678Z,39.8
2018-07-02T10:01:54.846Z,38.7
2018-07-02T10:02:54.179Z,38.3
2018-07-02T10:03:53.495Z,38.2
2018-07-02T10:04:52.832Z,37.8
2018-07-02T10:05:52.459Z,38.7
2018-07-02T10:06:51.601Z,38.6
2018-07-02T10:07:50.941Z,39.3
2018-07-02T10:08:50.163Z,38.4
2018-07-02T10:09:20.698Z,38.4
2018-07-02T10:09:51.352Z,38.2
2018-07-02T10:10:21.883Z,38.2
2018-07-02T10:10:52.524Z,38.2
2018-07-02T10:11:23.212Z,38.2
2018-07-02T10:12:47.713Z,38
2018-07-02T10:13:46.944Z,38.9
2018-07-02T10:14:46.716Z,38.6
2018-07-02T10:15:45.835Z,37.9
2018-07-02T10:16:45.461Z,38.4
2018-07-02T10:17:44.297Z,37.4
2018-07-02T10:18:43.624Z,37.9
2018-07-02T10:19:14.377Z,37.9
2018-07-02T10:19:45.027Z,37.7
2018-07-02T10:20:15.379Z,37.7
2018-07-02T10:20:45.776Z,37.6
2018-07-02T10:21:16.308Z,37.6
2018-07-02T10:21:46.952Z,38.1
2018-07-02T10:22:17.497Z,38.1
2018-07-02T10:22:47.920Z,38.4
2018-07-02T10:23:18.055Z,38.4
2018-07-02T10:24:40.219Z,36.9
2018-07-02T10:25:39.557Z,37.6
2018-07-02T10:26:38.882Z,38
2018-07-02T10:27:38.222Z,38.4
2018-07-02T10:28:37.447Z,38.1
2018-07-02T10:29:37.078Z,37.2
2018-07-02T10:30:36.416Z,36.6
2018-07-02T10:31:35.748Z,38.4
2018-07-02T10:32:35.085Z,38.5
2018-07-02T10:33:05.513Z,38.5
2018-07-02T10:34:33.719Z,36
2018-07-02T10:35:33.550Z,35.7
2018-07-02T10:36:32.459Z,36.4
2018-07-02T10:37:32.338Z,36
2018-07-02T10:38:31.562Z,36.2
2018-07-02T10:39:30.680Z,36.5
2018-07-02T10:40:30.402Z,36.6
2018-07-02T10:41:29.629Z,36.3
2018-07-02T10:42:28.957Z,35
2018-07-02T10:43:28.296Z,34.4
2018-07-02T10:44:27.726Z,33.9
2018-07-02T10:45:27.344Z,34.4
2018-07-02T10:46:26.563Z,34.1
2018-07-02T10:47:25.886Z,33.6
2018-07-02T10:48:25.133Z,33.9
2018-07-02T10:49:24.649Z,33.3
2018-07-02T10:50:24.576Z,32.6
2018-07-02T10:51:23.353Z,32.2
2018-07-02T10:52:23.184Z,32.4
2018-07-02T10:53:22.519Z,32.6
2018-07-02T10:54:21.842Z,34.5
2018-07-02T10:55:20.962Z,34.6
2018-07-02T10:56:20.800Z,34.5
2018-07-02T10:58:19.291Z,34.3
2018-07-02T10:59:18.738Z,35.4
2018-07-02T11:00:18.057Z,35.9
2018-07-02T11:01:17.445Z,35.7
2018-07-02T11:02:16.774Z,35.6
2018-07-02T11:02:47.309Z,35.6
2018-07-02T11:03:17.837Z,35.2
2018-07-02T11:03:47.968Z,35.2
2018-07-02T11:05:15.088Z,34.8
2018-07-02T11:06:14.416Z,33.6
2018-07-02T11:07:14.247Z,34.2
2018-07-02T11:08:13.463Z,33.5
2018-07-02T11:09:12.810Z,32.9
2018-07-02T11:10:12.145Z,32.3
2018-07-02T11:11:11.588Z,32
2018-07-02T11:12:10.865Z,33.2
2018-07-02T11:13:10.200Z,33.6
2018-07-02T11:14:09.857Z,33.3
2018-07-02T11:15:09.310Z,31.9
2018-07-02T11:16:08.755Z,30.5
2018-07-02T11:17:08.236Z,30.1
2018-07-02T11:18:07.523Z,30.3
2018-07-02T11:19:06.961Z,30.9
2018-07-02T11:20:06.686Z,30.6
2018-07-02T11:21:06.025Z,30.4
2018-07-02T11:22:05.351Z,30.4
2018-07-02T11:23:04.973Z,31.1
2018-07-02T11:24:04.292Z,31.3
2018-07-02T11:25:03.637Z,31.1
2018-07-02T11:26:02.973Z,30.4
2018-07-02T11:27:02.302Z,31.1
2018-07-02T11:28:02.038Z,30.2
2018-07-02T11:29:01.254Z,31.2
2018-07-02T11:30:00.691Z,29
2018-07-02T11:31:00.127Z,29.6
2018-07-02T11:31:59.348Z,30.9
2018-07-02T11:32:59.314Z,30
2018-07-02T11:33:58.551Z,29.8
2018-07-02T11:34:57.984Z,30.5
2018-07-02T11:35:57.102Z,29.3
2018-07-02T11:36:56.935Z,28.9
2018-07-02T11:37:56.375Z,29.3
2018-07-02T11:38:55.737Z,30.8
2018-07-02T11:40:54.465Z,29.7
2018-07-02T11:41:54.298Z,29.4
2018-07-02T11:42:53.623Z,25.3
2018-07-02T11:43:53.152Z,26
2018-07-02T11:44:52.268Z,25
2018-07-02T11:45:51.890Z,24.6
2018-07-02T11:46:51.508Z,26.1
2018-07-02T11:47:50.837Z,27.5
2018-07-02T11:48:50.454Z,26.9
2018-07-02T11:49:50.069Z,26.7
2018-07-02T11:50:49.515Z,26.4
2018-07-02T11:51:48.841Z,26.2
2018-07-02T11:52:48.165Z,27.9
2018-07-02T11:53:47.597Z,27.5
2018-07-02T11:54:47.437Z,27.4
2018-07-02T11:55:46.669Z,28.2
2018-07-02T11:56:46.294Z,27.1
2018-07-02T11:57:45.726Z,26.9
2018-07-02T11:58:45.053Z,25.5
2018-07-02T11:59:44.883Z,25.6
2018-07-02T12:00:15.541Z,25.6
2018-07-02T12:00:46.195Z,25.8
2018-07-02T12:01:16.439Z,25.8
2018-07-02T12:01:46.585Z,25.5
2018-07-02T12:02:17.340Z,25.5
2018-07-02T12:02:47.985Z,25.3
2018-07-02T12:03:42.780Z,26.3
2018-07-02T12:04:42.219Z,25.9
2018-07-02T12:06:41.355Z,27.2
2018-07-02T12:07:40.870Z,27.4
2018-07-02T12:08:40.198Z,27.4
2018-07-02T12:09:39.820Z,26.8
2018-07-02T12:10:39.440Z,24.6
2018-07-02T12:11:38.764Z,26.2
2018-07-02T12:12:38.211Z,26.7
2018-07-02T12:13:08.344Z,26.7
2018-07-02T12:13:38.991Z,23.3
2018-07-02T12:14:09.520Z,23.3
2018-07-02T12:14:40.271Z,24.4
2018-07-02T12:15:10.517Z,24.4
2018-07-02T12:16:36.521Z,23.7
2018-07-02T12:17:35.953Z,25.8
2018-07-02T12:18:35.281Z,24.2
2018-07-02T12:19:35.131Z,25.7
2018-07-02T12:20:34.581Z,25.7
2018-07-02T12:21:04.712Z,25.7
2018-07-02T12:21:35.352Z,25.5
2018-07-02T12:22:33.613Z,25.8
2018-07-02T12:23:32.843Z,24.4
2018-07-02T12:24:32.680Z,26.1
2018-07-02T12:26:31.901Z,25.1
2018-07-02T12:27:31.119Z,25.8
2018-07-02T12:29:30.441Z,24.7
2018-07-02T12:31:29.568Z,26
2018-07-02T12:32:28.893Z,25.2
2018-07-02T12:33:28.835Z,24.7
2018-07-02T12:34:28.106Z,25.1
2018-07-02T12:35:27.324Z,24.4
2018-07-02T12:36:27.163Z,23.2
2018-07-02T12:37:27.037Z,22.5
2018-07-02T12:38:26.042Z,22.9
2018-07-02T12:39:25.882Z,24.6
2018-07-02T12:40:25.707Z,23.7
2018-07-02T12:41:24.982Z,23.8
2018-07-02T12:42:24.813Z,23.8
2018-07-02T12:43:24.025Z,25.5
2018-07-02T12:44:23.854Z,22.9
2018-07-02T12:45:23.488Z,22.4
2018-07-02T12:46:22.616Z,23.9
2018-07-02T12:47:22.339Z,22.9
2018-07-02T12:48:22.060Z,24.9
2018-07-02T12:49:21.276Z,22.3
2018-07-02T12:50:21.174Z,24.8
2018-07-02T12:51:20.895Z,23.8
2018-07-02T12:52:20.115Z,21.8